Time,TemperatureF,DewpointF,PressureIn,WindDirection,WindDirectionDegrees,WindSpeedMPH,WindSpeedGustMPH,Humidity,HourlyPrecipIn,Conditions,Clouds,dailyrainin,SolarRadiationWatts/m^2,SoftwareType,DateUTC
2013-08-14 00:03:00,72.0,67.0,-100.00,NNW,330,0.0,5.0,85,0.00,,,0.38,0.000000,,2013-08-14 04:03:00,
2013-08-14 00:42:00,71.0,66.0,-100.00,West,276,1.0,3.0,85,0.00,,,0.38,0.000000,,2013-08-14 04:42:00,
2013-08-14 00:52:00,71.0,66.0,-100.00,West,276,1.0,3.0,85,0.00,,,0.38,0.000000,,2013-08-14 04:52:00,
2013-08-14 01:02:00,71.0,66.0,-100.00,West,276,1.0,3.0,85,0.00,,,0.38,0.000000,,2013-08-14 05:02:00,
2013-08-14 01:42:00,69.0,66.0,-100.00,ENE,73,0.0,2.0,90,0.00,,,0.38,0.000000,,2013-08-14 05:42:00,
2013-08-14 01:52:00,69.0,66.0,-100.00,ENE,73,0.0,2.0,90,0.00,,,0.38,0.000000,,2013-08-14 05:52:00,
2013-08-14 02:01:00,69.0,66.0,-100.00,ENE,73,0.0,2.0,90,0.00,,,0.38,0.000000,,2013-08-14 06:01:00,
2013-08-14 02:42:00,70.0,65.0,-100.00,West,281,0.0,3.0,84,0.00,,,0.38,0.000000,,2013-08-14 06:42:00,
2013-08-14 02:52:00,70.0,65.0,-100.00,West,281,0.0,3.0,84,0.00,,,0.38,0.000000,,2013-08-14 06:52:00,
2013-08-14 03:01:00,70.0,65.0,-100.00,West,281,0.0,3.0,84,0.00,,,0.38,0.000000,,2013-08-14 07:01:00,
2013-08-14 03:42:00,70.0,64.0,-100.00,North,353,1.0,4.0,81,0.00,,,0.38,0.000000,,2013-08-14 07:42:00,
2013-08-14 03:52:00,70.0,64.0,-100.00,North,353,1.0,4.0,81,0.00,,,0.38,0.000000,,2013-08-14 07:52:00,
2013-08-14 04:01:00,70.0,64.0,-100.00,North,353,1.0,4.0,81,0.00,,,0.38,0.000000,,2013-08-14 08:01:00,
2013-08-14 04:42:00,70.0,65.0,-100.00,NE,45,0.0,4.0,84,0.00,,,0.38,0.000000,,2013-08-14 08:42:00,
2013-08-14 04:52:00,70.0,65.0,-100.00,NE,45,0.0,4.0,84,0.00,,,0.38,0.000000,,2013-08-14 08:52:00,
2013-08-14 05:02:00,70.0,65.0,-100.00,NE,45,0.0,4.0,84,0.00,,,0.38,0.000000,,2013-08-14 09:02:00,
2013-08-14 05:43:00,68.0,63.0,-100.00,NNE,17,1.0,6.0,84,0.00,,,0.34,0.000000,,2013-08-14 09:43:00,
2013-08-14 05:53:00,68.0,63.0,-100.00,NNE,17,1.0,6.0,84,0.00,,,0.34,0.000000,,2013-08-14 09:53:00,
2013-08-14 06:03:00,68.0,63.0,-100.00,NNE,17,1.0,6.0,84,0.00,,,0.34,0.000000,,2013-08-14 10:03:00,
2013-08-14 06:43:00,68.0,62.0,-100.00,East,83,3.0,8.0,81,0.00,,,0.34,0.000000,,2013-08-14 10:43:00,
2013-08-14 06:53:00,68.0,62.0,-100.00,East,83,3.0,8.0,81,0.00,,,0.34,0.000000,,2013-08-14 10:53:00,
2013-08-14 07:02:00,68.0,62.0,-100.00,East,83,3.0,8.0,81,0.00,,,0.34,0.000000,,2013-08-14 11:02:00,
2013-08-14 07:42:00,65.0,61.0,-100.00,East,93,1.0,7.0,87,0.00,,,0.34,2.000000,,2013-08-14 11:42:00,
2013-08-14 07:52:00,65.0,61.0,-100.00,East,93,1.0,7.0,87,0.00,,,0.34,2.000000,,2013-08-14 11:52:00,
2013-08-14 08:01:00,65.0,61.0,-100.00,East,93,1.0,7.0,87,0.00,,,0.34,2.000000,,2013-08-14 12:01:00,
2013-08-14 08:42:00,66.0,60.0,-100.00,ENE,74,4.0,7.0,80,0.00,,,0.34,55.000000,,2013-08-14 12:42:00,
2013-08-14 08:52:00,66.0,60.0,-100.00,ENE,74,4.0,7.0,80,0.00,,,0.34,55.000000,,2013-08-14 12:52:00,
2013-08-14 09:02:00,66.0,60.0,-100.00,ENE,74,4.0,7.0,80,0.00,,,0.34,55.000000,,2013-08-14 13:02:00,
2013-08-14 09:42:00,69.0,60.0,-100.00,East,82,4.0,9.0,73,0.00,,,0.34,247.000000,,2013-08-14 13:42:00,
2013-08-14 09:52:00,69.0,60.0,-100.00,East,82,4.0,9.0,73,0.00,,,0.34,247.000000,,2013-08-14 13:52:00,
2013-08-14 10:02:00,69.0,60.0,-100.00,East,82,4.0,9.0,73,0.00,,,0.34,247.000000,,2013-08-14 14:02:00,
2013-08-14 10:42:00,71.0,61.0,-100.00,East,92,4.0,10.0,70,0.00,,,0.34,425.000000,,2013-08-14 14:42:00,
2013-08-14 10:52:00,71.0,61.0,-100.00,East,92,4.0,10.0,70,0.00,,,0.34,425.000000,,2013-08-14 14:52:00,
2013-08-14 11:02:00,71.0,61.0,-100.00,East,92,4.0,10.0,70,0.00,,,0.34,425.000000,,2013-08-14 15:02:00,
2013-08-14 11:44:00,72.0,60.0,-100.00,ENE,75,5.0,10.0,66,0.00,,,0.34,581.000000,,2013-08-14 15:44:00,
2013-08-14 11:57:00,72.0,60.0,-100.00,ENE,75,5.0,10.0,66,0.00,,,0.34,581.000000,,2013-08-14 15:57:00,
2013-08-14 12:04:00,72.0,60.0,-100.00,ENE,75,5.0,10.0,66,0.00,,,0.34,581.000000,,2013-08-14 16:04:00,
2013-08-14 12:05:00,73.0,60.0,-100.00,ENE,60,4.0,9.0,63,0.00,,,0.34,513.000000,,2013-08-14 16:05:00,
2013-08-14 12:43:00,73.0,60.0,-100.00,ENE,60,4.0,9.0,63,0.00,,,0.34,513.000000,,2013-08-14 16:43:00,
2013-08-14 13:05:00,76.0,58.0,-100.00,ENE,62,4.0,12.0,54,0.00,,,0.23,832.000000,,2013-08-14 17:05:00,
2013-08-14 13:44:00,76.0,58.0,-100.00,ENE,62,4.0,12.0,54,0.00,,,0.23,832.000000,,2013-08-14 17:44:00,
2013-08-14 13:55:00,76.0,58.0,-100.00,ENE,62,4.0,12.0,54,0.00,,,0.23,832.000000,,2013-08-14 17:55:00,
2013-08-14 15:03:00,77.0,54.0,-100.00,WNW,300,3.0,9.0,45,0.00,,,0.22,793.000000,,2013-08-14 19:03:00,
2013-08-14 15:05:00,78.0,56.0,-100.00,NE,53,4.0,10.0,46,0.00,,,0.20,824.000000,,2013-08-14 19:05:00,
2013-08-14 15:42:00,78.0,56.0,-100.00,NE,53,4.0,10.0,46,0.00,,,0.20,824.000000,,2013-08-14 19:42:00,
2013-08-14 15:58:00,78.0,56.0,-100.00,NE,53,4.0,10.0,46,0.00,,,0.20,824.000000,,2013-08-14 19:58:00,
2013-08-14 16:05:00,77.0,53.0,-100.00,ENE,57,4.0,9.0,44,0.00,,,0.00,691.000000,,2013-08-14 20:05:00,
2013-08-14 16:49:00,77.0,53.0,-100.00,ENE,57,4.0,9.0,44,0.00,,,0.00,691.000000,,2013-08-14 20:49:00,
2013-08-14 17:45:00,77.0,56.0,-100.00,NE,45,4.0,10.0,48,0.00,,,0.00,493.000000,,2013-08-14 21:45:00,
2013-08-14 17:55:00,77.0,56.0,-100.00,NE,45,4.0,10.0,48,0.00,,,0.00,493.000000,,2013-08-14 21:55:00,
2013-08-14 18:04:00,77.0,56.0,-100.00,NE,45,4.0,10.0,48,0.00,,,0.00,493.000000,,2013-08-14 22:04:00,
2013-08-14 18:05:00,76.0,54.0,-100.00,ENE,57,4.0,11.0,47,0.00,,,0.00,329.000000,,2013-08-14 22:05:00,
2013-08-14 18:44:00,76.0,54.0,-100.00,ENE,57,4.0,11.0,47,0.00,,,0.00,329.000000,,2013-08-14 22:44:00,
2013-08-14 18:55:00,76.0,54.0,-100.00,ENE,57,4.0,11.0,47,0.00,,,0.00,329.000000,,2013-08-14 22:55:00,
2013-08-14 19:46:00,74.0,54.0,-100.00,ENE,64,6.0,10.0,49,0.00,,,0.00,206.000000,,2013-08-14 23:46:00,
2013-08-14 19:56:00,74.0,54.0,-100.00,ENE,64,6.0,10.0,49,0.00,,,0.00,206.000000,,2013-08-14 23:56:00,
2013-08-14 20:04:00,74.0,54.0,-100.00,ENE,64,6.0,10.0,49,0.00,,,0.00,206.000000,,2013-08-15 00:04:00,
2013-08-14 20:43:00,69.0,58.0,-100.00,NW,322,0.0,8.0,68,0.00,,,0.00,23.000000,,2013-08-15 00:43:00,
2013-08-14 20:52:00,69.0,58.0,-100.00,NW,322,0.0,8.0,68,0.00,,,0.00,23.000000,,2013-08-15 00:52:00,
2013-08-14 21:01:00,69.0,58.0,-100.00,NW,322,0.0,8.0,68,0.00,,,0.00,23.000000,,2013-08-15 01:01:00,
2013-08-14 21:42:00,67.0,57.0,-100.00,East,86,0.0,3.0,71,0.00,,,0.00,3.000000,,2013-08-15 01:42:00,
2013-08-14 21:52:00,67.0,57.0,-100.00,East,86,0.0,3.0,71,0.00,,,0.00,3.000000,,2013-08-15 01:52:00,
2013-08-14 22:02:00,67.0,57.0,-100.00,East,86,0.0,3.0,71,0.00,,,0.00,3.000000,,2013-08-15 02:02:00,
2013-08-14 22:52:00,65.0,56.0,-100.00,NE,50,0.0,5.0,74,0.00,,,0.00,0.000000,,2013-08-15 02:52:00,
2013-08-14 23:02:00,65.0,56.0,-100.00,NE,50,0.0,5.0,74,0.00,,,0.00,0.000000,,2013-08-15 03:02:00,
2013-08-14 23:44:00,65.0,54.0,-100.00,ENE,71,4.0,8.0,68,0.00,,,0.00,0.000000,,2013-08-15 03:44:00,
2013-08-14 23:53:00,65.0,54.0,-100.00,ENE,71,4.0,8.0,68,0.00,,,0.00,0.000000,,2013-08-15 03:53:00,